Terminal Aerodrome Forecast
Issued by NWS

Home | Current Version | Previous Version | Text Only | Print | Product List | Glossary On
Versions: 1 2 3 4 5 6 7 8 9 10 11 12
000
FTPA31 PHFO 171738
TAFHNY
TAF
PHNY 171738Z 1718/1818 05012KT P6SM SCT025 SCT035
     FM172100 05008KT P6SM SCT025 SCT035
     FM180200 VRB05KT P6SM SCT020 BKN035=

USA.gov is the U.S. government's official web portal to all federal, state and local government web resources and services.